Terminal Aerodrome Forecast
Issued by NWS

Current Version | Previous Version | Graphics & Text | Print | Product List | Glossary On
Versions: 1 2 3 4 5 6 7 8 9 10 11 12 13 14 15 16 17 18 19
000
FTUS41 KILN 191000 AAC
TAFLCK
TAF AMD
KLCK 191013Z 1910/2006 31007KT P6SM SKC
     FM191500 31012G22KT P6SM FEW035
     FM200200 34006KT P6SM SKC=

USA.gov is the U.S. government's official web portal to all federal, state and local government web resources and services.